Peyton, Colorado
Current Conditions -  °F | °C
As of 5:14 AM on Friday 28 Nov 2014 (Local Time) from KMNH Reporting Station
Clear Clear  
Wind Chill: 41°   Ceiling: Unl
Heat Index: 45°   Visibility: 10mi
Dew Point:   Wind: 7mph
Humidity: 23%   Direction: 220°SW
Pressure: 30.07"   Gusts: NA
Location:  39.03°N, 104.48°W
Report Text: KMNH 281214Z AUTO 22006KT 10SM CLR 07/M13 A3007 RMK AO2
Loading
Personal Weather Stations






























Interactive Weather Map New forecast layout! Learn more

10-Day Weather Forecast

Advertisements
Track Severe Weather on mobile